sensor_id;sensor_type;location;lat;lon;timestamp;P1;durP1;ratioP1;P2;durP2;ratioP2
9671;SDS011;4874;43.568;27.824;2023-02-03T00:01:01;4.45;;;2.33;;
9671;SDS011;4874;43.568;27.824;2023-02-03T00:03:28;7.30;;;3.40;;
9671;SDS011;4874;43.568;27.824;2023-02-03T00:05:55;7.47;;;3.60;;
9671;SDS011;4874;43.568;27.824;2023-02-03T00:10:48;7.95;;;3.30;;
9671;SDS011;4874;43.568;27.824;2023-02-03T00:13:16;8.88;;;3.47;;
9671;SDS011;4874;43.568;27.824;2023-02-03T00:15:43;6.00;;;2.75;;
9671;SDS011;4874;43.568;27.824;2023-02-03T00:18:09;5.57;;;3.08;;
9671;SDS011;4874;43.568;27.824;2023-02-03T00:20:36;5.93;;;3.28;;
9671;SDS011;4874;43.568;27.824;2023-02-03T00:23:04;7.38;;;3.22;;
9671;SDS011;4874;43.568;27.824;2023-02-03T00:25:32;7.17;;;2.97;;
9671;SDS011;4874;43.568;27.824;2023-02-03T00:27:59;6.28;;;2.85;;
9671;SDS011;4874;43.568;27.824;2023-02-03T00:32:53;9.48;;;3.28;;
9671;SDS011;4874;43.568;27.824;2023-02-03T00:37:52;6.00;;;3.25;;
9671;SDS011;4874;43.568;27.824;2023-02-03T00:40:20;8.23;;;3.00;;
9671;SDS011;4874;43.568;27.824;2023-02-03T00:42:49;6.00;;;2.88;;
9671;SDS011;4874;43.568;27.824;2023-02-03T00:45:16;6.20;;;2.85;;
9671;SDS011;4874;43.568;27.824;2023-02-03T00:50:10;6.03;;;2.70;;
9671;SDS011;4874;43.568;27.824;2023-02-03T00:52:36;6.20;;;3.17;;
9671;SDS011;4874;43.568;27.824;2023-02-03T00:55:04;7.07;;;3.40;;
9671;SDS011;4874;43.568;27.824;2023-02-03T00:57:31;5.30;;;2.90;;
9671;SDS011;4874;43.568;27.824;2023-02-03T00:59:58;7.10;;;3.33;;
9671;SDS011;4874;43.568;27.824;2023-02-03T01:02:24;4.97;;;2.55;;
9671;SDS011;4874;43.568;27.824;2023-02-03T01:04:51;7.63;;;2.65;;
9671;SDS011;4874;43.568;27.824;2023-02-03T01:07:18;7.85;;;3.25;;
9671;SDS011;4874;43.568;27.824;2023-02-03T01:09:45;5.22;;;3.03;;
9671;SDS011;4874;43.568;27.824;2023-02-03T01:12:11;6.30;;;3.05;;
9671;SDS011;4874;43.568;27.824;2023-02-03T01:17:05;6.67;;;3.60;;
9671;SDS011;4874;43.568;27.824;2023-02-03T01:19:31;6.10;;;2.92;;
9671;SDS011;4874;43.568;27.824;2023-02-03T01:21:58;6.50;;;3.10;;
9671;SDS011;4874;43.568;27.824;2023-02-03T01:24:25;10.77;;;3.38;;
9671;SDS011;4874;43.568;27.824;2023-02-03T01:26:51;7.47;;;3.20;;
9671;SDS011;4874;43.568;27.824;2023-02-03T01:29:18;7.78;;;2.65;;
9671;SDS011;4874;43.568;27.824;2023-02-03T01:31:45;7.32;;;3.22;;
9671;SDS011;4874;43.568;27.824;2023-02-03T01:34:12;4.82;;;2.50;;
9671;SDS011;4874;43.568;27.824;2023-02-03T01:36:41;5.83;;;2.10;;
9671;SDS011;4874;43.568;27.824;2023-02-03T01:39:08;3.88;;;2.10;;
9671;SDS011;4874;43.568;27.824;2023-02-03T01:41:36;5.07;;;2.77;;
9671;SDS011;4874;43.568;27.824;2023-02-03T01:49:50;6.43;;;3.20;;
9671;SDS011;4874;43.568;27.824;2023-02-03T01:52:22;6.43;;;3.07;;
9671;SDS011;4874;43.568;27.824;2023-02-03T01:54:49;7.57;;;3.03;;
9671;SDS011;4874;43.568;27.824;2023-02-03T01:57:20;6.90;;;2.95;;
9671;SDS011;4874;43.568;27.824;2023-02-03T01:59:51;7.30;;;2.53;;
9671;SDS011;4874;43.568;27.824;2023-02-03T02:02:22;5.82;;;2.92;;
9671;SDS011;4874;43.568;27.824;2023-02-03T02:07:15;6.73;;;2.97;;
9671;SDS011;4874;43.568;27.824;2023-02-03T02:09:43;6.40;;;2.70;;
9671;SDS011;4874;43.568;27.824;2023-02-03T02:12:11;6.57;;;3.20;;
9671;SDS011;4874;43.568;27.824;2023-02-03T02:14:38;7.43;;;3.05;;
9671;SDS011;4874;43.568;27.824;2023-02-03T02:17:10;6.83;;;3.20;;
9671;SDS011;4874;43.568;27.824;2023-02-03T02:23:04;7.85;;;3.05;;
9671;SDS011;4874;43.568;27.824;2023-02-03T02:26:02;6.90;;;3.10;;
9671;SDS011;4874;43.568;27.824;2023-02-03T02:43:29;7.43;;;2.73;;
9671;SDS011;4874;43.568;27.824;2023-02-03T02:46:10;8.02;;;3.00;;
9671;SDS011;4874;43.568;27.824;2023-02-03T02:48:51;7.73;;;2.90;;
9671;SDS011;4874;43.568;27.824;2023-02-03T02:51:23;6.88;;;3.20;;
9671;SDS011;4874;43.568;27.824;2023-02-03T02:53:53;8.38;;;3.75;;
9671;SDS011;4874;43.568;27.824;2023-02-03T02:56:23;7.30;;;3.40;;
9671;SDS011;4874;43.568;27.824;2023-02-03T02:58:52;7.90;;;3.20;;
9671;SDS011;4874;43.568;27.824;2023-02-03T03:01:22;7.68;;;3.30;;
9671;SDS011;4874;43.568;27.824;2023-02-03T03:08:49;8.02;;;4.07;;
9671;SDS011;4874;43.568;27.824;2023-02-03T03:11:27;7.07;;;3.78;;
9671;SDS011;4874;43.568;27.824;2023-02-03T03:13:57;7.97;;;3.58;;
9671;SDS011;4874;43.568;27.824;2023-02-03T03:16:25;7.57;;;4.45;;
9671;SDS011;4874;43.568;27.824;2023-02-03T03:18:55;9.98;;;3.78;;
9671;SDS011;4874;43.568;27.824;2023-02-03T03:21:39;9.60;;;3.53;;
9671;SDS011;4874;43.568;27.824;2023-02-03T03:24:11;7.07;;;3.75;;
9671;SDS011;4874;43.568;27.824;2023-02-03T03:29:28;9.18;;;4.10;;
9671;SDS011;4874;43.568;27.824;2023-02-03T03:32:00;9.60;;;4.43;;
9671;SDS011;4874;43.568;27.824;2023-02-03T03:34:28;6.95;;;3.83;;
9671;SDS011;4874;43.568;27.824;2023-02-03T03:37:18;9.33;;;3.87;;
9671;SDS011;4874;43.568;27.824;2023-02-03T03:42:47;7.43;;;3.73;;
9671;SDS011;4874;43.568;27.824;2023-02-03T03:45:17;9.65;;;4.32;;
9671;SDS011;4874;43.568;27.824;2023-02-03T03:47:54;9.33;;;4.53;;
9671;SDS011;4874;43.568;27.824;2023-02-03T03:50:27;8.98;;;4.25;;
9671;SDS011;4874;43.568;27.824;2023-02-03T03:52:58;9.13;;;4.90;;
9671;SDS011;4874;43.568;27.824;2023-02-03T03:55:28;9.30;;;4.27;;
9671;SDS011;4874;43.568;27.824;2023-02-03T03:57:58;13.83;;;4.97;;
9671;SDS011;4874;43.568;27.824;2023-02-03T04:00:26;9.63;;;4.82;;
9671;SDS011;4874;43.568;27.824;2023-02-03T04:02:57;9.60;;;4.47;;
9671;SDS011;4874;43.568;27.824;2023-02-03T04:05:28;8.40;;;4.23;;
9671;SDS011;4874;43.568;27.824;2023-02-03T04:07:56;12.13;;;4.87;;
9671;SDS011;4874;43.568;27.824;2023-02-03T04:12:56;11.38;;;3.92;;
9671;SDS011;4874;43.568;27.824;2023-02-03T04:15:22;7.50;;;3.55;;
9671;SDS011;4874;43.568;27.824;2023-02-03T04:17:49;5.75;;;3.70;;
9671;SDS011;4874;43.568;27.824;2023-02-03T04:20:16;8.45;;;3.55;;
9671;SDS011;4874;43.568;27.824;2023-02-03T04:22:43;9.63;;;3.17;;
9671;SDS011;4874;43.568;27.824;2023-02-03T04:25:09;7.05;;;3.17;;
9671;SDS011;4874;43.568;27.824;2023-02-03T04:27:36;10.68;;;3.72;;
9671;SDS011;4874;43.568;27.824;2023-02-03T04:32:30;5.72;;;3.13;;
9671;SDS011;4874;43.568;27.824;2023-02-03T04:37:24;3.63;;;2.13;;
9671;SDS011;4874;43.568;27.824;2023-02-03T04:39:53;8.63;;;3.67;;
9671;SDS011;4874;43.568;27.824;2023-02-03T04:42:23;9.13;;;4.00;;
9671;SDS011;4874;43.568;27.824;2023-02-03T04:44:51;6.63;;;3.60;;
9671;SDS011;4874;43.568;27.824;2023-02-03T04:49:44;9.77;;;4.07;;
9671;SDS011;4874;43.568;27.824;2023-02-03T04:52:11;7.03;;;3.63;;
9671;SDS011;4874;43.568;27.824;2023-02-03T04:54:38;7.70;;;3.80;;
9671;SDS011;4874;43.568;27.824;2023-02-03T04:59:32;8.33;;;3.17;;
9671;SDS011;4874;43.568;27.824;2023-02-03T05:04:27;6.57;;;2.77;;
9671;SDS011;4874;43.568;27.824;2023-02-03T05:06:54;8.55;;;4.28;;
9671;SDS011;4874;43.568;27.824;2023-02-03T05:09:24;6.73;;;3.50;;
9671;SDS011;4874;43.568;27.824;2023-02-03T05:11:51;4.60;;;2.73;;
9671;SDS011;4874;43.568;27.824;2023-02-03T05:14:18;8.33;;;3.73;;
9671;SDS011;4874;43.568;27.824;2023-02-03T05:16:45;6.90;;;4.07;;
9671;SDS011;4874;43.568;27.824;2023-02-03T05:19:12;6.13;;;3.20;;
9671;SDS011;4874;43.568;27.824;2023-02-03T05:21:39;7.28;;;3.03;;
9671;SDS011;4874;43.568;27.824;2023-02-03T05:24:06;8.27;;;3.78;;
9671;SDS011;4874;43.568;27.824;2023-02-03T05:26:36;7.13;;;3.30;;
9671;SDS011;4874;43.568;27.824;2023-02-03T05:29:02;5.73;;;3.07;;
9671;SDS011;4874;43.568;27.824;2023-02-03T05:31:29;7.57;;;3.42;;
9671;SDS011;4874;43.568;27.824;2023-02-03T05:33:56;5.88;;;3.05;;
9671;SDS011;4874;43.568;27.824;2023-02-03T05:36:23;6.28;;;3.13;;
9671;SDS011;4874;43.568;27.824;2023-02-03T05:38:49;5.68;;;3.30;;
9671;SDS011;4874;43.568;27.824;2023-02-03T05:41:16;7.05;;;3.65;;
9671;SDS011;4874;43.568;27.824;2023-02-03T05:44:01;7.27;;;3.30;;
9671;SDS011;4874;43.568;27.824;2023-02-03T05:46:28;11.43;;;3.17;;
9671;SDS011;4874;43.568;27.824;2023-02-03T05:51:21;7.03;;;3.33;;
9671;SDS011;4874;43.568;27.824;2023-02-03T05:53:48;11.45;;;4.40;;
9671;SDS011;4874;43.568;27.824;2023-02-03T05:56:15;6.47;;;3.50;;
9671;SDS011;4874;43.568;27.824;2023-02-03T05:58:41;3.97;;;1.98;;
9671;SDS011;4874;43.568;27.824;2023-02-03T06:01:08;7.70;;;2.72;;
9671;SDS011;4874;43.568;27.824;2023-02-03T06:03:37;6.13;;;3.42;;
9671;SDS011;4874;43.568;27.824;2023-02-03T06:08:30;7.78;;;4.32;;
9671;SDS011;4874;43.568;27.824;2023-02-03T06:10:57;8.38;;;4.60;;
9671;SDS011;4874;43.568;27.824;2023-02-03T06:13:26;9.55;;;4.18;;
9671;SDS011;4874;43.568;27.824;2023-02-03T06:15:53;9.52;;;4.20;;
9671;SDS011;4874;43.568;27.824;2023-02-03T06:18:20;9.45;;;4.05;;
9671;SDS011;4874;43.568;27.824;2023-02-03T06:20:46;6.60;;;2.83;;
9671;SDS011;4874;43.568;27.824;2023-02-03T06:23:13;8.38;;;3.53;;
9671;SDS011;4874;43.568;27.824;2023-02-03T06:25:42;7.07;;;3.40;;
9671;SDS011;4874;43.568;27.824;2023-02-03T06:28:09;4.22;;;2.38;;
9671;SDS011;4874;43.568;27.824;2023-02-03T06:33:02;9.15;;;4.07;;
9671;SDS011;4874;43.568;27.824;2023-02-03T06:35:29;10.32;;;4.28;;
9671;SDS011;4874;43.568;27.824;2023-02-03T06:37:56;6.97;;;3.05;;
9671;SDS011;4874;43.568;27.824;2023-02-03T06:40:22;6.38;;;3.13;;
9671;SDS011;4874;43.568;27.824;2023-02-03T06:42:49;8.18;;;3.70;;
9671;SDS011;4874;43.568;27.824;2023-02-03T06:45:16;6.15;;;3.30;;
9671;SDS011;4874;43.568;27.824;2023-02-03T06:50:12;6.93;;;3.40;;
9671;SDS011;4874;43.568;27.824;2023-02-03T06:52:40;7.35;;;3.60;;
9671;SDS011;4874;43.568;27.824;2023-02-03T06:57:33;5.38;;;2.60;;
9671;SDS011;4874;43.568;27.824;2023-02-03T07:00:00;5.20;;;2.28;;
9671;SDS011;4874;43.568;27.824;2023-02-03T07:02:27;4.88;;;3.08;;
9671;SDS011;4874;43.568;27.824;2023-02-03T07:04:54;7.53;;;2.90;;
9671;SDS011;4874;43.568;27.824;2023-02-03T07:07:21;5.32;;;2.95;;
9671;SDS011;4874;43.568;27.824;2023-02-03T07:09:47;8.07;;;3.40;;
9671;SDS011;4874;43.568;27.824;2023-02-03T07:12:14;8.05;;;3.42;;
9671;SDS011;4874;43.568;27.824;2023-02-03T07:17:07;10.73;;;4.00;;
9671;SDS011;4874;43.568;27.824;2023-02-03T07:19:34;8.23;;;3.40;;
9671;SDS011;4874;43.568;27.824;2023-02-03T07:22:01;9.48;;;3.20;;
9671;SDS011;4874;43.568;27.824;2023-02-03T07:24:28;9.38;;;4.25;;
9671;SDS011;4874;43.568;27.824;2023-02-03T07:26:54;8.38;;;3.33;;
9671;SDS011;4874;43.568;27.824;2023-02-03T07:29:21;8.68;;;3.50;;
9671;SDS011;4874;43.568;27.824;2023-02-03T07:31:48;7.40;;;3.83;;
9671;SDS011;4874;43.568;27.824;2023-02-03T07:36:41;6.50;;;3.22;;
9671;SDS011;4874;43.568;27.824;2023-02-03T07:39:08;4.88;;;2.53;;
9671;SDS011;4874;43.568;27.824;2023-02-03T07:41:35;8.15;;;4.40;;
9671;SDS011;4874;43.568;27.824;2023-02-03T07:44:02;8.50;;;3.75;;
9671;SDS011;4874;43.568;27.824;2023-02-03T07:48:55;9.30;;;4.10;;
9671;SDS011;4874;43.568;27.824;2023-02-03T07:51:22;11.18;;;3.92;;
9671;SDS011;4874;43.568;27.824;2023-02-03T07:53:49;6.57;;;3.65;;
9671;SDS011;4874;43.568;27.824;2023-02-03T07:56:15;9.80;;;4.28;;
9671;SDS011;4874;43.568;27.824;2023-02-03T07:58:42;7.90;;;3.95;;
9671;SDS011;4874;43.568;27.824;2023-02-03T08:01:12;9.00;;;4.18;;
9671;SDS011;4874;43.568;27.824;2023-02-03T08:03:41;7.90;;;3.95;;
9671;SDS011;4874;43.568;27.824;2023-02-03T08:06:08;6.20;;;3.17;;
9671;SDS011;4874;43.568;27.824;2023-02-03T08:08:35;7.05;;;3.47;;
9671;SDS011;4874;43.568;27.824;2023-02-03T08:11:02;7.00;;;3.50;;
9671;SDS011;4874;43.568;27.824;2023-02-03T08:15:55;8.93;;;3.63;;
9671;SDS011;4874;43.568;27.824;2023-02-03T08:18:22;6.13;;;3.17;;
9671;SDS011;4874;43.568;27.824;2023-02-03T08:23:15;7.18;;;2.90;;
9671;SDS011;4874;43.568;27.824;2023-02-03T08:25:42;6.43;;;3.40;;
9671;SDS011;4874;43.568;27.824;2023-02-03T08:28:09;6.68;;;3.15;;
9671;SDS011;4874;43.568;27.824;2023-02-03T08:33:02;7.32;;;3.58;;
9671;SDS011;4874;43.568;27.824;2023-02-03T08:35:29;6.22;;;3.30;;
9671;SDS011;4874;43.568;27.824;2023-02-03T08:37:55;8.15;;;3.70;;
9671;SDS011;4874;43.568;27.824;2023-02-03T08:40:22;10.05;;;3.67;;
9671;SDS011;4874;43.568;27.824;2023-02-03T08:42:49;7.97;;;3.28;;
9671;SDS011;4874;43.568;27.824;2023-02-03T08:45:15;9.73;;;3.92;;
9671;SDS011;4874;43.568;27.824;2023-02-03T08:50:09;6.93;;;3.25;;
9671;SDS011;4874;43.568;27.824;2023-02-03T08:52:36;9.48;;;3.65;;
9671;SDS011;4874;43.568;27.824;2023-02-03T08:55:03;7.28;;;3.42;;
9671;SDS011;4874;43.568;27.824;2023-02-03T08:57:31;8.48;;;3.33;;
9671;SDS011;4874;43.568;27.824;2023-02-03T09:00:02;8.93;;;2.88;;
9671;SDS011;4874;43.568;27.824;2023-02-03T09:02:30;8.10;;;3.53;;
9671;SDS011;4874;43.568;27.824;2023-02-03T09:04:56;7.43;;;3.22;;
9671;SDS011;4874;43.568;27.824;2023-02-03T09:07:23;7.25;;;2.97;;
9671;SDS011;4874;43.568;27.824;2023-02-03T09:12:17;8.15;;;3.90;;
9671;SDS011;4874;43.568;27.824;2023-02-03T09:17:10;5.68;;;2.85;;
9671;SDS011;4874;43.568;27.824;2023-02-03T09:19:37;7.80;;;4.05;;
9671;SDS011;4874;43.568;27.824;2023-02-03T09:22:04;7.18;;;3.30;;
9671;SDS011;4874;43.568;27.824;2023-02-03T09:24:31;13.82;;;4.57;;
9671;SDS011;4874;43.568;27.824;2023-02-03T09:26:58;8.55;;;3.70;;
9671;SDS011;4874;43.568;27.824;2023-02-03T09:29:26;9.18;;;4.30;;
9671;SDS011;4874;43.568;27.824;2023-02-03T09:31:53;11.95;;;5.75;;
9671;SDS011;4874;43.568;27.824;2023-02-03T09:36:47;8.40;;;4.60;;
9671;SDS011;4874;43.568;27.824;2023-02-03T09:39:14;6.82;;;3.22;;
9671;SDS011;4874;43.568;27.824;2023-02-03T09:47:44;6.28;;;2.97;;
9671;SDS011;4874;43.568;27.824;2023-02-03T09:50:17;8.73;;;3.83;;
9671;SDS011;4874;43.568;27.824;2023-02-03T09:52:46;8.93;;;3.63;;
9671;SDS011;4874;43.568;27.824;2023-02-03T09:58:33;5.18;;;2.97;;
9671;SDS011;4874;43.568;27.824;2023-02-03T10:01:00;8.20;;;2.90;;
9671;SDS011;4874;43.568;27.824;2023-02-03T10:12:07;6.75;;;3.20;;
9671;SDS011;4874;43.568;27.824;2023-02-03T10:15:22;5.15;;;2.40;;
9671;SDS011;4874;43.568;27.824;2023-02-03T10:17:53;5.93;;;3.20;;
9671;SDS011;4874;43.568;27.824;2023-02-03T10:20:30;5.50;;;2.63;;
9671;SDS011;4874;43.568;27.824;2023-02-03T10:23:08;4.60;;;2.30;;
9671;SDS011;4874;43.568;27.824;2023-02-03T10:25:51;4.90;;;2.53;;
9671;SDS011;4874;43.568;27.824;2023-02-03T10:28:23;5.63;;;2.90;;
9671;SDS011;4874;43.568;27.824;2023-02-03T10:30:54;3.38;;;1.75;;
9671;SDS011;4874;43.568;27.824;2023-02-03T10:33:27;5.20;;;2.33;;
9671;SDS011;4874;43.568;27.824;2023-02-03T10:41:14;7.80;;;3.30;;
9671;SDS011;4874;43.568;27.824;2023-02-03T10:43:43;6.40;;;2.50;;
9671;SDS011;4874;43.568;27.824;2023-02-03T10:46:27;5.32;;;2.40;;
9671;SDS011;4874;43.568;27.824;2023-02-03T10:48:58;5.00;;;2.35;;
9671;SDS011;4874;43.568;27.824;2023-02-03T10:53:56;7.03;;;2.70;;
9671;SDS011;4874;43.568;27.824;2023-02-03T10:56:28;5.00;;;2.90;;
9671;SDS011;4874;43.568;27.824;2023-02-03T10:58:59;4.63;;;2.35;;
9671;SDS011;4874;43.568;27.824;2023-02-03T11:03:58;4.25;;;2.40;;
9671;SDS011;4874;43.568;27.824;2023-02-03T11:06:29;4.60;;;2.65;;
9671;SDS011;4874;43.568;27.824;2023-02-03T11:08:58;13.63;;;7.18;;
9671;SDS011;4874;43.568;27.824;2023-02-03T11:11:26;9.50;;;4.80;;
9671;SDS011;4874;43.568;27.824;2023-02-03T11:16:25;7.78;;;2.90;;
9671;SDS011;4874;43.568;27.824;2023-02-03T11:18:56;6.38;;;3.33;;
9671;SDS011;4874;43.568;27.824;2023-02-03T11:26:42;7.00;;;2.60;;
9671;SDS011;4874;43.568;27.824;2023-02-03T11:29:21;4.88;;;2.47;;
9671;SDS011;4874;43.568;27.824;2023-02-03T11:31:51;7.15;;;3.20;;
9671;SDS011;4874;43.568;27.824;2023-02-03T11:34:27;5.65;;;3.40;;
9671;SDS011;4874;43.568;27.824;2023-02-03T11:36:56;4.75;;;2.35;;
9671;SDS011;4874;43.568;27.824;2023-02-03T11:41:49;5.03;;;2.90;;
9671;SDS011;4874;43.568;27.824;2023-02-03T11:44:21;7.70;;;3.42;;
9671;SDS011;4874;43.568;27.824;2023-02-03T11:46:51;6.00;;;2.63;;
9671;SDS011;4874;43.568;27.824;2023-02-03T11:51:57;7.97;;;3.40;;
9671;SDS011;4874;43.568;27.824;2023-02-03T12:00:18;13.38;;;4.57;;
9671;SDS011;4874;43.568;27.824;2023-02-03T12:03:15;6.90;;;2.80;;
9671;SDS011;4874;43.568;27.824;2023-02-03T12:09:31;6.75;;;2.95;;
9671;SDS011;4874;43.568;27.824;2023-02-03T12:26:18;5.70;;;2.53;;
9671;SDS011;4874;43.568;27.824;2023-02-03T12:35:03;5.50;;;2.33;;
9671;SDS011;4874;43.568;27.824;2023-02-03T12:40:35;8.48;;;3.67;;
9671;SDS011;4874;43.568;27.824;2023-02-03T12:43:18;6.57;;;3.40;;
9671;SDS011;4874;43.568;27.824;2023-02-03T12:46:26;9.52;;;3.47;;
9671;SDS011;4874;43.568;27.824;2023-02-03T12:49:00;11.20;;;5.40;;
9671;SDS011;4874;43.568;27.824;2023-02-03T12:52:19;8.07;;;3.85;;
9671;SDS011;4874;43.568;27.824;2023-02-03T12:55:12;7.63;;;3.40;;
9671;SDS011;4874;43.568;27.824;2023-02-03T12:58:44;8.18;;;3.63;;
9671;SDS011;4874;43.568;27.824;2023-02-03T13:01:04;8.98;;;3.95;;
9671;SDS011;4874;43.568;27.824;2023-02-03T13:03:42;6.90;;;3.10;;
9671;SDS011;4874;43.568;27.824;2023-02-03T13:18:03;12.90;;;4.68;;
9671;SDS011;4874;43.568;27.824;2023-02-03T13:20:38;9.20;;;4.90;;
9671;SDS011;4874;43.568;27.824;2023-02-03T13:23:10;9.63;;;4.75;;
9671;SDS011;4874;43.568;27.824;2023-02-03T13:29:37;8.18;;;3.80;;
9671;SDS011;4874;43.568;27.824;2023-02-03T13:32:09;6.13;;;2.58;;
9671;SDS011;4874;43.568;27.824;2023-02-03T13:38:01;4.30;;;2.30;;
9671;SDS011;4874;43.568;27.824;2023-02-03T13:40:47;4.13;;;2.13;;
9671;SDS011;4874;43.568;27.824;2023-02-03T13:43:24;10.95;;;5.50;;
9671;SDS011;4874;43.568;27.824;2023-02-03T13:46:04;7.38;;;4.40;;
9671;SDS011;4874;43.568;27.824;2023-02-03T13:48:43;7.53;;;2.70;;
9671;SDS011;4874;43.568;27.824;2023-02-03T13:51:13;6.80;;;3.22;;
9671;SDS011;4874;43.568;27.824;2023-02-03T13:53:42;6.25;;;3.00;;
9671;SDS011;4874;43.568;27.824;2023-02-03T13:59:26;5.45;;;2.67;;
9671;SDS011;4874;43.568;27.824;2023-02-03T14:01:40;7.55;;;2.85;;
9671;SDS011;4874;43.568;27.824;2023-02-03T14:12:16;6.03;;;2.78;;
9671;SDS011;4874;43.568;27.824;2023-02-03T14:22:54;6.45;;;3.00;;
9671;SDS011;4874;43.568;27.824;2023-02-03T14:25:25;7.40;;;3.78;;
9671;SDS011;4874;43.568;27.824;2023-02-03T14:28:37;6.05;;;3.53;;
9671;SDS011;4874;43.568;27.824;2023-02-03T14:38:54;7.57;;;3.65;;
9671;SDS011;4874;43.568;27.824;2023-02-03T14:41:40;10.60;;;5.30;;
9671;SDS011;4874;43.568;27.824;2023-02-03T14:50:07;7.55;;;4.65;;
9671;SDS011;4874;43.568;27.824;2023-02-03T14:52:48;6.55;;;3.33;;
9671;SDS011;4874;43.568;27.824;2023-02-03T14:58:03;7.78;;;4.07;;
9671;SDS011;4874;43.568;27.824;2023-02-03T15:00:40;11.88;;;5.30;;
9671;SDS011;4874;43.568;27.824;2023-02-03T15:05:41;11.32;;;5.93;;
9671;SDS011;4874;43.568;27.824;2023-02-03T15:08:29;13.80;;;7.22;;
9671;SDS011;4874;43.568;27.824;2023-02-03T15:10:58;14.20;;;7.35;;
9671;SDS011;4874;43.568;27.824;2023-02-03T15:13:26;15.23;;;7.63;;
9671;SDS011;4874;43.568;27.824;2023-02-03T15:15:59;13.90;;;6.80;;
9671;SDS011;4874;43.568;27.824;2023-02-03T15:18:30;10.57;;;5.90;;
9671;SDS011;4874;43.568;27.824;2023-02-03T15:21:01;10.13;;;4.35;;
9671;SDS011;4874;43.568;27.824;2023-02-03T15:23:39;10.25;;;5.30;;
9671;SDS011;4874;43.568;27.824;2023-02-03T15:26:12;12.27;;;6.95;;
9671;SDS011;4874;43.568;27.824;2023-02-03T15:28:42;10.85;;;6.43;;
9671;SDS011;4874;43.568;27.824;2023-02-03T15:31:19;12.98;;;7.32;;
9671;SDS011;4874;43.568;27.824;2023-02-03T15:34:22;12.48;;;6.57;;
9671;SDS011;4874;43.568;27.824;2023-02-03T15:36:47;12.23;;;5.60;;
9671;SDS011;4874;43.568;27.824;2023-02-03T15:39:19;12.05;;;5.68;;
9671;SDS011;4874;43.568;27.824;2023-02-03T15:41:54;17.60;;;6.85;;
9671;SDS011;4874;43.568;27.824;2023-02-03T15:44:25;21.33;;;7.93;;
9671;SDS011;4874;43.568;27.824;2023-02-03T15:46:58;34.58;;;12.95;;
9671;SDS011;4874;43.568;27.824;2023-02-03T15:49:29;36.55;;;14.98;;
9671;SDS011;4874;43.568;27.824;2023-02-03T15:52:10;43.08;;;19.27;;
9671;SDS011;4874;43.568;27.824;2023-02-03T15:54:39;35.38;;;15.63;;
9671;SDS011;4874;43.568;27.824;2023-02-03T15:57:18;33.63;;;15.48;;
9671;SDS011;4874;43.568;27.824;2023-02-03T15:59:52;44.42;;;19.60;;
9671;SDS011;4874;43.568;27.824;2023-02-03T16:10:51;36.75;;;17.20;;
9671;SDS011;4874;43.568;27.824;2023-02-03T16:18:53;45.25;;;18.30;;
9671;SDS011;4874;43.568;27.824;2023-02-03T16:21:27;38.92;;;17.30;;
9671;SDS011;4874;43.568;27.824;2023-02-03T16:23:56;34.50;;;15.60;;
9671;SDS011;4874;43.568;27.824;2023-02-03T16:26:25;34.33;;;15.40;;
9671;SDS011;4874;43.568;27.824;2023-02-03T16:29:15;28.65;;;13.27;;
9671;SDS011;4874;43.568;27.824;2023-02-03T16:31:59;23.50;;;12.45;;
9671;SDS011;4874;43.568;27.824;2023-02-03T16:34:44;25.05;;;12.88;;
9671;SDS011;4874;43.568;27.824;2023-02-03T16:37:31;25.27;;;13.02;;
9671;SDS011;4874;43.568;27.824;2023-02-03T16:40:20;24.90;;;13.80;;
9671;SDS011;4874;43.568;27.824;2023-02-03T16:45:59;26.65;;;13.73;;
9671;SDS011;4874;43.568;27.824;2023-02-03T16:48:45;25.08;;;13.43;;
9671;SDS011;4874;43.568;27.824;2023-02-03T16:51:33;34.53;;;19.73;;
9671;SDS011;4874;43.568;27.824;2023-02-03T16:54:10;32.20;;;16.88;;
9671;SDS011;4874;43.568;27.824;2023-02-03T16:56:39;31.10;;;18.33;;
9671;SDS011;4874;43.568;27.824;2023-02-03T16:59:06;37.95;;;21.33;;
9671;SDS011;4874;43.568;27.824;2023-02-03T17:04:00;19.73;;;10.30;;
9671;SDS011;4874;43.568;27.824;2023-02-03T17:06:30;17.38;;;9.50;;
9671;SDS011;4874;43.568;27.824;2023-02-03T17:08:58;16.58;;;9.05;;
9671;SDS011;4874;43.568;27.824;2023-02-03T17:11:25;17.77;;;10.60;;
9671;SDS011;4874;43.568;27.824;2023-02-03T17:16:20;16.17;;;9.35;;
9671;SDS011;4874;43.568;27.824;2023-02-03T17:18:48;26.13;;;13.27;;
9671;SDS011;4874;43.568;27.824;2023-02-03T17:26:10;23.35;;;12.52;;
9671;SDS011;4874;43.568;27.824;2023-02-03T17:28:40;27.85;;;13.77;;
9671;SDS011;4874;43.568;27.824;2023-02-03T17:31:16;28.63;;;13.88;;
9671;SDS011;4874;43.568;27.824;2023-02-03T17:33:44;29.73;;;14.73;;
9671;SDS011;4874;43.568;27.824;2023-02-03T17:36:12;31.17;;;18.00;;
9671;SDS011;4874;43.568;27.824;2023-02-03T17:38:44;30.70;;;14.63;;
9671;SDS011;4874;43.568;27.824;2023-02-03T17:41:30;31.17;;;15.43;;
9671;SDS011;4874;43.568;27.824;2023-02-03T17:44:14;26.00;;;13.13;;
9671;SDS011;4874;43.568;27.824;2023-02-03T17:46:58;25.00;;;13.05;;
9671;SDS011;4874;43.568;27.824;2023-02-03T17:49:42;22.63;;;10.98;;
9671;SDS011;4874;43.568;27.824;2023-02-03T17:52:31;25.20;;;11.30;;
9671;SDS011;4874;43.568;27.824;2023-02-03T17:55:16;19.90;;;10.00;;
9671;SDS011;4874;43.568;27.824;2023-02-03T17:57:43;17.23;;;8.13;;
9671;SDS011;4874;43.568;27.824;2023-02-03T18:00:10;10.63;;;5.57;;
9671;SDS011;4874;43.568;27.824;2023-02-03T18:02:37;10.77;;;5.57;;
9671;SDS011;4874;43.568;27.824;2023-02-03T18:05:05;6.30;;;3.58;;
9671;SDS011;4874;43.568;27.824;2023-02-03T18:07:32;6.25;;;3.78;;
9671;SDS011;4874;43.568;27.824;2023-02-03T18:09:59;6.38;;;3.50;;
9671;SDS011;4874;43.568;27.824;2023-02-03T18:12:25;8.23;;;3.90;;
9671;SDS011;4874;43.568;27.824;2023-02-03T18:14:52;8.05;;;3.58;;
9671;SDS011;4874;43.568;27.824;2023-02-03T18:17:19;7.32;;;3.55;;
9671;SDS011;4874;43.568;27.824;2023-02-03T18:19:46;7.85;;;3.63;;
9671;SDS011;4874;43.568;27.824;2023-02-03T18:22:20;9.20;;;3.88;;
9671;SDS011;4874;43.568;27.824;2023-02-03T18:27:17;7.40;;;4.00;;
9671;SDS011;4874;43.568;27.824;2023-02-03T18:29:44;8.68;;;4.00;;
9671;SDS011;4874;43.568;27.824;2023-02-03T18:32:12;9.43;;;4.40;;
9671;SDS011;4874;43.568;27.824;2023-02-03T18:34:41;9.05;;;3.88;;
9671;SDS011;4874;43.568;27.824;2023-02-03T18:37:07;10.05;;;3.92;;
9671;SDS011;4874;43.568;27.824;2023-02-03T18:39:34;7.80;;;3.90;;
9671;SDS011;4874;43.568;27.824;2023-02-03T18:44:28;7.53;;;4.00;;
9671;SDS011;4874;43.568;27.824;2023-02-03T18:46:56;8.13;;;3.80;;
9671;SDS011;4874;43.568;27.824;2023-02-03T18:49:32;7.05;;;3.85;;
9671;SDS011;4874;43.568;27.824;2023-02-03T18:52:02;4.80;;;3.10;;
9671;SDS011;4874;43.568;27.824;2023-02-03T18:54:29;4.80;;;2.70;;
9671;SDS011;4874;43.568;27.824;2023-02-03T18:56:57;6.32;;;3.55;;
9671;SDS011;4874;43.568;27.824;2023-02-03T18:59:24;7.40;;;4.68;;
9671;SDS011;4874;43.568;27.824;2023-02-03T19:01:51;7.43;;;4.30;;
9671;SDS011;4874;43.568;27.824;2023-02-03T19:04:18;6.75;;;4.20;;
9671;SDS011;4874;43.568;27.824;2023-02-03T19:06:45;7.32;;;4.03;;
9671;SDS011;4874;43.568;27.824;2023-02-03T19:09:13;7.13;;;3.85;;
9671;SDS011;4874;43.568;27.824;2023-02-03T19:11:42;6.55;;;3.83;;
9671;SDS011;4874;43.568;27.824;2023-02-03T19:14:10;5.70;;;3.00;;
9671;SDS011;4874;43.568;27.824;2023-02-03T19:16:38;5.93;;;3.78;;
9671;SDS011;4874;43.568;27.824;2023-02-03T19:19:05;6.72;;;4.15;;
9671;SDS011;4874;43.568;27.824;2023-02-03T19:21:32;8.23;;;4.68;;
9671;SDS011;4874;43.568;27.824;2023-02-03T19:26:25;10.02;;;4.28;;
9671;SDS011;4874;43.568;27.824;2023-02-03T19:28:53;7.00;;;4.05;;
9671;SDS011;4874;43.568;27.824;2023-02-03T19:31:21;7.00;;;4.20;;
9671;SDS011;4874;43.568;27.824;2023-02-03T19:33:48;6.43;;;3.65;;
9671;SDS011;4874;43.568;27.824;2023-02-03T19:38:43;6.85;;;3.83;;
9671;SDS011;4874;43.568;27.824;2023-02-03T19:41:10;8.55;;;4.10;;
9671;SDS011;4874;43.568;27.824;2023-02-03T19:43:37;6.32;;;3.85;;
9671;SDS011;4874;43.568;27.824;2023-02-03T19:46:06;7.97;;;4.25;;
9671;SDS011;4874;43.568;27.824;2023-02-03T19:48:33;8.60;;;4.57;;